sensor_id;sensor_type;location;lat;lon;timestamp;P1;durP1;ratioP1;P2;durP2;ratioP2
9844;SDS011;4961;50.782;6.080;2022-09-03T00:00:27;1.37;;;0.50;;
9844;SDS011;4961;50.782;6.080;2022-09-03T00:03:03;0.63;;;0.50;;
9844;SDS011;4961;50.782;6.080;2022-09-03T00:05:40;0.77;;;0.40;;
9844;SDS011;4961;50.782;6.080;2022-09-03T00:08:16;1.50;;;0.50;;
9844;SDS011;4961;50.782;6.080;2022-09-03T00:10:51;0.40;;;0.40;;
9844;SDS011;4961;50.782;6.080;2022-09-03T00:13:26;0.57;;;0.50;;
9844;SDS011;4961;50.782;6.080;2022-09-03T00:16:00;0.93;;;0.57;;
9844;SDS011;4961;50.782;6.080;2022-09-03T00:18:36;1.50;;;0.40;;
9844;SDS011;4961;50.782;6.080;2022-09-03T00:21:11;1.20;;;0.40;;
9844;SDS011;4961;50.782;6.080;2022-09-03T00:23:44;1.47;;;0.40;;
9844;SDS011;4961;50.782;6.080;2022-09-03T00:26:18;1.33;;;0.40;;
9844;SDS011;4961;50.782;6.080;2022-09-03T00:28:54;0.80;;;0.33;;
9844;SDS011;4961;50.782;6.080;2022-09-03T00:31:28;0.60;;;0.30;;
9844;SDS011;4961;50.782;6.080;2022-09-03T00:34:03;1.73;;;0.40;;
9844;SDS011;4961;50.782;6.080;2022-09-03T00:36:37;1.03;;;0.40;;
9844;SDS011;4961;50.782;6.080;2022-09-03T00:39:09;0.87;;;0.50;;
9844;SDS011;4961;50.782;6.080;2022-09-03T00:41:43;0.30;;;0.30;;
9844;SDS011;4961;50.782;6.080;2022-09-03T00:44:26;0.97;;;0.40;;
9844;SDS011;4961;50.782;6.080;2022-09-03T00:47:16;1.30;;;0.40;;
9844;SDS011;4961;50.782;6.080;2022-09-03T00:49:55;0.47;;;0.40;;
9844;SDS011;4961;50.782;6.080;2022-09-03T00:52:43;1.00;;;0.50;;
9844;SDS011;4961;50.782;6.080;2022-09-03T00:55:24;0.93;;;0.40;;
9844;SDS011;4961;50.782;6.080;2022-09-03T00:58:13;1.03;;;0.60;;
9844;SDS011;4961;50.782;6.080;2022-09-03T01:00:53;1.43;;;0.40;;
9844;SDS011;4961;50.782;6.080;2022-09-03T01:03:25;1.60;;;0.50;;
9844;SDS011;4961;50.782;6.080;2022-09-03T01:06:09;1.33;;;0.50;;
9844;SDS011;4961;50.782;6.080;2022-09-03T01:11:37;0.50;;;0.30;;
9844;SDS011;4961;50.782;6.080;2022-09-03T01:14:17;0.53;;;0.40;;
9844;SDS011;4961;50.782;6.080;2022-09-03T01:16:58;1.03;;;0.30;;
9844;SDS011;4961;50.782;6.080;2022-09-03T01:19:46;2.43;;;0.50;;
9844;SDS011;4961;50.782;6.080;2022-09-03T01:22:42;1.97;;;0.83;;
9844;SDS011;4961;50.782;6.080;2022-09-03T01:25:45;1.23;;;0.50;;
9844;SDS011;4961;50.782;6.080;2022-09-03T01:28:32;1.83;;;0.40;;
9844;SDS011;4961;50.782;6.080;2022-09-03T01:31:15;0.83;;;0.37;;
9844;SDS011;4961;50.782;6.080;2022-09-03T01:33:54;0.40;;;0.33;;
9844;SDS011;4961;50.782;6.080;2022-09-03T01:36:31;1.23;;;0.30;;
9844;SDS011;4961;50.782;6.080;2022-09-03T01:39:10;0.70;;;0.43;;
9844;SDS011;4961;50.782;6.080;2022-09-03T01:41:46;0.53;;;0.40;;
9844;SDS011;4961;50.782;6.080;2022-09-03T01:44:55;1.80;;;0.40;;
9844;SDS011;4961;50.782;6.080;2022-09-03T01:47:50;2.30;;;0.63;;
9844;SDS011;4961;50.782;6.080;2022-09-03T01:50:31;0.50;;;0.30;;
9844;SDS011;4961;50.782;6.080;2022-09-03T01:53:08;0.70;;;0.40;;
9844;SDS011;4961;50.782;6.080;2022-09-03T01:55:51;0.70;;;0.30;;
9844;SDS011;4961;50.782;6.080;2022-09-03T01:58:33;1.20;;;0.40;;
9844;SDS011;4961;50.782;6.080;2022-09-03T02:01:11;2.47;;;0.40;;
9844;SDS011;4961;50.782;6.080;2022-09-03T02:03:44;0.90;;;0.40;;
9844;SDS011;4961;50.782;6.080;2022-09-03T02:06:14;2.50;;;0.40;;
9844;SDS011;4961;50.782;6.080;2022-09-03T02:08:46;1.17;;;0.30;;
9844;SDS011;4961;50.782;6.080;2022-09-03T02:11:15;0.40;;;0.30;;
9844;SDS011;4961;50.782;6.080;2022-09-03T02:13:46;0.53;;;0.40;;
9844;SDS011;4961;50.782;6.080;2022-09-03T02:16:20;1.30;;;0.63;;
9844;SDS011;4961;50.782;6.080;2022-09-03T02:18:51;0.77;;;0.47;;
9844;SDS011;4961;50.782;6.080;2022-09-03T02:21:25;0.30;;;0.30;;
9844;SDS011;4961;50.782;6.080;2022-09-03T02:24:00;1.63;;;0.37;;
9844;SDS011;4961;50.782;6.080;2022-09-03T02:26:31;0.47;;;0.40;;
9844;SDS011;4961;50.782;6.080;2022-09-03T02:29:00;0.83;;;0.40;;
9844;SDS011;4961;50.782;6.080;2022-09-03T02:31:31;0.40;;;0.40;;
9844;SDS011;4961;50.782;6.080;2022-09-03T02:34:00;1.63;;;0.50;;
9844;SDS011;4961;50.782;6.080;2022-09-03T02:36:30;0.30;;;0.30;;
9844;SDS011;4961;50.782;6.080;2022-09-03T02:39:02;0.37;;;0.30;;
9844;SDS011;4961;50.782;6.080;2022-09-03T02:41:31;1.03;;;0.30;;
9844;SDS011;4961;50.782;6.080;2022-09-03T02:44:01;1.27;;;0.30;;
9844;SDS011;4961;50.782;6.080;2022-09-03T02:46:37;1.07;;;0.30;;
9844;SDS011;4961;50.782;6.080;2022-09-03T02:49:08;1.50;;;0.30;;
9844;SDS011;4961;50.782;6.080;2022-09-03T02:51:39;2.00;;;0.33;;
9844;SDS011;4961;50.782;6.080;2022-09-03T02:54:09;2.70;;;0.40;;
9844;SDS011;4961;50.782;6.080;2022-09-03T02:56:44;0.40;;;0.30;;
9844;SDS011;4961;50.782;6.080;2022-09-03T02:59:15;1.53;;;0.40;;
9844;SDS011;4961;50.782;6.080;2022-09-03T03:01:46;2.63;;;0.40;;
9844;SDS011;4961;50.782;6.080;2022-09-03T03:04:16;0.40;;;0.40;;
9844;SDS011;4961;50.782;6.080;2022-09-03T03:06:45;1.80;;;0.33;;
9844;SDS011;4961;50.782;6.080;2022-09-03T03:09:16;0.30;;;0.30;;
9844;SDS011;4961;50.782;6.080;2022-09-03T03:11:45;1.43;;;0.40;;
9844;SDS011;4961;50.782;6.080;2022-09-03T03:14:16;0.33;;;0.30;;
9844;SDS011;4961;50.782;6.080;2022-09-03T03:16:47;0.87;;;0.40;;
9844;SDS011;4961;50.782;6.080;2022-09-03T03:19:16;0.30;;;0.27;;
9844;SDS011;4961;50.782;6.080;2022-09-03T03:21:46;2.10;;;0.20;;
9844;SDS011;4961;50.782;6.080;2022-09-03T03:24:15;1.10;;;0.50;;
9844;SDS011;4961;50.782;6.080;2022-09-03T03:30:24;1.67;;;0.40;;
9844;SDS011;4961;50.782;6.080;2022-09-03T03:32:55;0.57;;;0.40;;
9844;SDS011;4961;50.782;6.080;2022-09-03T03:35:24;2.83;;;0.40;;
9844;SDS011;4961;50.782;6.080;2022-09-03T03:37:53;0.73;;;0.43;;
9844;SDS011;4961;50.782;6.080;2022-09-03T03:40:24;0.80;;;0.50;;
9844;SDS011;4961;50.782;6.080;2022-09-03T03:42:53;0.73;;;0.23;;
9844;SDS011;4961;50.782;6.080;2022-09-03T03:45:25;0.60;;;0.30;;
9844;SDS011;4961;50.782;6.080;2022-09-03T03:47:57;0.40;;;0.40;;
9844;SDS011;4961;50.782;6.080;2022-09-03T03:50:25;1.03;;;0.30;;
9844;SDS011;4961;50.782;6.080;2022-09-03T03:52:54;2.20;;;0.40;;
9844;SDS011;4961;50.782;6.080;2022-09-03T03:55:27;1.00;;;0.30;;
9844;SDS011;4961;50.782;6.080;2022-09-03T03:58:00;0.40;;;0.30;;
9844;SDS011;4961;50.782;6.080;2022-09-03T04:00:29;0.60;;;0.40;;
9844;SDS011;4961;50.782;6.080;2022-09-03T04:03:04;0.60;;;0.30;;
9844;SDS011;4961;50.782;6.080;2022-09-03T04:05:32;0.63;;;0.40;;
9844;SDS011;4961;50.782;6.080;2022-09-03T04:08:04;0.47;;;0.30;;
9844;SDS011;4961;50.782;6.080;2022-09-03T04:10:32;0.20;;;0.20;;
9844;SDS011;4961;50.782;6.080;2022-09-03T04:13:00;2.87;;;0.40;;
9844;SDS011;4961;50.782;6.080;2022-09-03T04:15:29;1.87;;;0.30;;
9844;SDS011;4961;50.782;6.080;2022-09-03T04:17:57;0.33;;;0.20;;
9844;SDS011;4961;50.782;6.080;2022-09-03T04:20:27;2.00;;;0.30;;
9844;SDS011;4961;50.782;6.080;2022-09-03T04:22:59;1.83;;;0.30;;
9844;SDS011;4961;50.782;6.080;2022-09-03T04:25:27;0.33;;;0.30;;
9844;SDS011;4961;50.782;6.080;2022-09-03T04:27:55;0.30;;;0.30;;
9844;SDS011;4961;50.782;6.080;2022-09-03T04:30:24;0.97;;;0.50;;
9844;SDS011;4961;50.782;6.080;2022-09-03T04:32:53;1.03;;;0.30;;
9844;SDS011;4961;50.782;6.080;2022-09-03T04:35:22;0.60;;;0.30;;
9844;SDS011;4961;50.782;6.080;2022-09-03T04:37:53;1.23;;;0.20;;
9844;SDS011;4961;50.782;6.080;2022-09-03T04:40:23;0.60;;;0.40;;
9844;SDS011;4961;50.782;6.080;2022-09-03T04:42:55;0.80;;;0.40;;
9844;SDS011;4961;50.782;6.080;2022-09-03T04:45:24;0.50;;;0.30;;
9844;SDS011;4961;50.782;6.080;2022-09-03T04:47:55;0.80;;;0.37;;
9844;SDS011;4961;50.782;6.080;2022-09-03T04:50:24;2.37;;;0.50;;
9844;SDS011;4961;50.782;6.080;2022-09-03T04:52:59;1.00;;;0.60;;
9844;SDS011;4961;50.782;6.080;2022-09-03T04:55:33;3.60;;;0.40;;
9844;SDS011;4961;50.782;6.080;2022-09-03T04:58:02;0.30;;;0.30;;
9844;SDS011;4961;50.782;6.080;2022-09-03T05:00:34;0.53;;;0.33;;
9844;SDS011;4961;50.782;6.080;2022-09-03T05:03:03;0.33;;;0.30;;
9844;SDS011;4961;50.782;6.080;2022-09-03T05:05:32;1.23;;;0.37;;
9844;SDS011;4961;50.782;6.080;2022-09-03T05:08:02;0.30;;;0.30;;
9844;SDS011;4961;50.782;6.080;2022-09-03T05:10:31;0.30;;;0.30;;
9844;SDS011;4961;50.782;6.080;2022-09-03T05:13:00;0.90;;;0.33;;
9844;SDS011;4961;50.782;6.080;2022-09-03T05:15:32;1.70;;;0.40;;
9844;SDS011;4961;50.782;6.080;2022-09-03T05:18:00;0.80;;;0.40;;
9844;SDS011;4961;50.782;6.080;2022-09-03T05:20:29;0.40;;;0.40;;
9844;SDS011;4961;50.782;6.080;2022-09-03T05:23:01;1.67;;;0.40;;
9844;SDS011;4961;50.782;6.080;2022-09-03T05:25:30;0.40;;;0.30;;
9844;SDS011;4961;50.782;6.080;2022-09-03T05:27:59;0.53;;;0.47;;
9844;SDS011;4961;50.782;6.080;2022-09-03T05:30:29;1.07;;;0.40;;
9844;SDS011;4961;50.782;6.080;2022-09-03T05:32:57;1.53;;;0.33;;
9844;SDS011;4961;50.782;6.080;2022-09-03T05:35:28;1.90;;;0.40;;
9844;SDS011;4961;50.782;6.080;2022-09-03T05:37:57;0.70;;;0.40;;
9844;SDS011;4961;50.782;6.080;2022-09-03T05:40:27;2.67;;;0.50;;
9844;SDS011;4961;50.782;6.080;2022-09-03T05:42:57;1.63;;;0.37;;
9844;SDS011;4961;50.782;6.080;2022-09-03T05:45:28;2.57;;;0.30;;
9844;SDS011;4961;50.782;6.080;2022-09-03T05:47:58;0.50;;;0.40;;
9844;SDS011;4961;50.782;6.080;2022-09-03T05:50:27;3.03;;;0.60;;
9844;SDS011;4961;50.782;6.080;2022-09-03T05:52:55;0.40;;;0.40;;
9844;SDS011;4961;50.782;6.080;2022-09-03T05:55:25;1.27;;;0.40;;
9844;SDS011;4961;50.782;6.080;2022-09-03T05:57:55;1.67;;;0.40;;
9844;SDS011;4961;50.782;6.080;2022-09-03T06:00:24;1.63;;;0.40;;
9844;SDS011;4961;50.782;6.080;2022-09-03T06:02:54;2.27;;;0.30;;
9844;SDS011;4961;50.782;6.080;2022-09-03T06:05:23;2.03;;;0.77;;
9844;SDS011;4961;50.782;6.080;2022-09-03T06:07:51;0.57;;;0.30;;
9844;SDS011;4961;50.782;6.080;2022-09-03T06:10:20;1.07;;;0.50;;
9844;SDS011;4961;50.782;6.080;2022-09-03T06:12:55;1.47;;;0.40;;
9844;SDS011;4961;50.782;6.080;2022-09-03T06:15:26;4.73;;;0.70;;
9844;SDS011;4961;50.782;6.080;2022-09-03T06:17:54;0.50;;;0.50;;
9844;SDS011;4961;50.782;6.080;2022-09-03T06:20:23;2.20;;;0.60;;
9844;SDS011;4961;50.782;6.080;2022-09-03T06:22:55;3.53;;;0.77;;
9844;SDS011;4961;50.782;6.080;2022-09-03T06:25:23;3.23;;;0.60;;
9844;SDS011;4961;50.782;6.080;2022-09-03T06:27:53;1.77;;;0.47;;
9844;SDS011;4961;50.782;6.080;2022-09-03T06:30:23;1.87;;;0.30;;
9844;SDS011;4961;50.782;6.080;2022-09-03T06:32:53;1.27;;;0.40;;
9844;SDS011;4961;50.782;6.080;2022-09-03T06:35:24;2.17;;;0.60;;
9844;SDS011;4961;50.782;6.080;2022-09-03T06:37:54;1.93;;;0.70;;
9844;SDS011;4961;50.782;6.080;2022-09-03T06:40:23;2.80;;;0.60;;
9844;SDS011;4961;50.782;6.080;2022-09-03T06:42:55;1.60;;;0.40;;
9844;SDS011;4961;50.782;6.080;2022-09-03T06:45:29;1.07;;;0.50;;
9844;SDS011;4961;50.782;6.080;2022-09-03T06:47:58;1.17;;;0.60;;
9844;SDS011;4961;50.782;6.080;2022-09-03T06:50:26;0.97;;;0.53;;
9844;SDS011;4961;50.782;6.080;2022-09-03T06:53:00;0.40;;;0.40;;
9844;SDS011;4961;50.782;6.080;2022-09-03T06:55:28;3.00;;;0.63;;
9844;SDS011;4961;50.782;6.080;2022-09-03T06:57:56;3.17;;;0.80;;
9844;SDS011;4961;50.782;6.080;2022-09-03T07:00:25;2.67;;;0.53;;
9844;SDS011;4961;50.782;6.080;2022-09-03T07:02:58;1.63;;;0.50;;
9844;SDS011;4961;50.782;6.080;2022-09-03T07:05:28;2.40;;;0.80;;
9844;SDS011;4961;50.782;6.080;2022-09-03T07:07:57;2.53;;;0.60;;
9844;SDS011;4961;50.782;6.080;2022-09-03T07:10:25;1.87;;;0.60;;
9844;SDS011;4961;50.782;6.080;2022-09-03T07:12:54;0.87;;;0.73;;
9844;SDS011;4961;50.782;6.080;2022-09-03T07:15:22;2.67;;;0.67;;
9844;SDS011;4961;50.782;6.080;2022-09-03T07:17:51;0.97;;;0.60;;
9844;SDS011;4961;50.782;6.080;2022-09-03T07:20:21;1.80;;;0.60;;
9844;SDS011;4961;50.782;6.080;2022-09-03T07:22:53;0.50;;;0.50;;
9844;SDS011;4961;50.782;6.080;2022-09-03T07:25:23;0.70;;;0.60;;
9844;SDS011;4961;50.782;6.080;2022-09-03T07:27:52;0.70;;;0.50;;
9844;SDS011;4961;50.782;6.080;2022-09-03T07:30:21;3.33;;;0.60;;
9844;SDS011;4961;50.782;6.080;2022-09-03T07:32:53;3.90;;;0.90;;
9844;SDS011;4961;50.782;6.080;2022-09-03T07:35:23;1.00;;;0.70;;
9844;SDS011;4961;50.782;6.080;2022-09-03T07:37:53;2.50;;;0.60;;
9844;SDS011;4961;50.782;6.080;2022-09-03T07:40:21;0.70;;;0.57;;
9844;SDS011;4961;50.782;6.080;2022-09-03T07:42:55;2.00;;;0.60;;
9844;SDS011;4961;50.782;6.080;2022-09-03T07:45:24;3.33;;;0.53;;
9844;SDS011;4961;50.782;6.080;2022-09-03T07:47:54;1.30;;;0.60;;
9844;SDS011;4961;50.782;6.080;2022-09-03T07:50:24;2.07;;;0.53;;
9844;SDS011;4961;50.782;6.080;2022-09-03T07:52:56;2.00;;;0.47;;
9844;SDS011;4961;50.782;6.080;2022-09-03T07:55:25;1.10;;;0.60;;
9844;SDS011;4961;50.782;6.080;2022-09-03T07:57:54;1.57;;;0.50;;
9844;SDS011;4961;50.782;6.080;2022-09-03T08:00:24;1.67;;;0.70;;
9844;SDS011;4961;50.782;6.080;2022-09-03T08:02:54;0.60;;;0.53;;
9844;SDS011;4961;50.782;6.080;2022-09-03T08:05:26;1.60;;;0.70;;
9844;SDS011;4961;50.782;6.080;2022-09-03T08:07:55;2.10;;;0.63;;
9844;SDS011;4961;50.782;6.080;2022-09-03T08:10:33;1.70;;;0.70;;
9844;SDS011;4961;50.782;6.080;2022-09-03T08:13:06;1.57;;;0.70;;
9844;SDS011;4961;50.782;6.080;2022-09-03T08:15:41;1.83;;;0.60;;
9844;SDS011;4961;50.782;6.080;2022-09-03T08:18:12;2.43;;;0.70;;
9844;SDS011;4961;50.782;6.080;2022-09-03T08:20:45;2.20;;;0.60;;
9844;SDS011;4961;50.782;6.080;2022-09-03T08:23:13;0.70;;;0.60;;
9844;SDS011;4961;50.782;6.080;2022-09-03T08:25:41;1.23;;;0.50;;
9844;SDS011;4961;50.782;6.080;2022-09-03T08:28:12;1.07;;;0.50;;
9844;SDS011;4961;50.782;6.080;2022-09-03T08:30:45;0.50;;;0.50;;
9844;SDS011;4961;50.782;6.080;2022-09-03T08:33:13;0.60;;;0.60;;
9844;SDS011;4961;50.782;6.080;2022-09-03T08:36:05;1.23;;;0.60;;
9844;SDS011;4961;50.782;6.080;2022-09-03T08:38:37;0.70;;;0.60;;
9844;SDS011;4961;50.782;6.080;2022-09-03T08:41:15;2.23;;;0.70;;
9844;SDS011;4961;50.782;6.080;2022-09-03T08:43:53;1.33;;;0.60;;
9844;SDS011;4961;50.782;6.080;2022-09-03T08:46:38;0.63;;;0.63;;
9844;SDS011;4961;50.782;6.080;2022-09-03T08:49:15;1.40;;;0.70;;
9844;SDS011;4961;50.782;6.080;2022-09-03T08:51:54;1.10;;;0.70;;
9844;SDS011;4961;50.782;6.080;2022-09-03T08:54:25;1.43;;;0.80;;
9844;SDS011;4961;50.782;6.080;2022-09-03T08:56:57;1.33;;;1.20;;
9844;SDS011;4961;50.782;6.080;2022-09-03T08:59:28;0.80;;;0.70;;
9844;SDS011;4961;50.782;6.080;2022-09-03T09:02:03;2.73;;;0.80;;
9844;SDS011;4961;50.782;6.080;2022-09-03T09:04:46;1.50;;;0.90;;
9844;SDS011;4961;50.782;6.080;2022-09-03T09:07:28;1.03;;;0.90;;
9844;SDS011;4961;50.782;6.080;2022-09-03T09:10:02;0.77;;;0.77;;
9844;SDS011;4961;50.782;6.080;2022-09-03T09:12:38;2.83;;;0.77;;
9844;SDS011;4961;50.782;6.080;2022-09-03T09:15:14;2.00;;;0.80;;
9844;SDS011;4961;50.782;6.080;2022-09-03T09:20:41;3.00;;;1.10;;
9844;SDS011;4961;50.782;6.080;2022-09-03T09:23:23;1.13;;;0.90;;
9844;SDS011;4961;50.782;6.080;2022-09-03T09:25:57;1.40;;;0.77;;
9844;SDS011;4961;50.782;6.080;2022-09-03T09:28:31;1.33;;;0.80;;
9844;SDS011;4961;50.782;6.080;2022-09-03T09:31:05;2.00;;;0.90;;
9844;SDS011;4961;50.782;6.080;2022-09-03T09:33:37;0.80;;;0.80;;
9844;SDS011;4961;50.782;6.080;2022-09-03T09:36:07;1.33;;;0.53;;
9844;SDS011;4961;50.782;6.080;2022-09-03T09:38:44;1.17;;;0.70;;
9844;SDS011;4961;50.782;6.080;2022-09-03T09:41:14;0.80;;;0.80;;
9844;SDS011;4961;50.782;6.080;2022-09-03T09:43:44;0.80;;;0.80;;
9844;SDS011;4961;50.782;6.080;2022-09-03T09:46:18;2.07;;;1.33;;
9844;SDS011;4961;50.782;6.080;2022-09-03T09:48:51;0.97;;;0.90;;
9844;SDS011;4961;50.782;6.080;2022-09-03T09:51:21;1.57;;;0.80;;
9844;SDS011;4961;50.782;6.080;2022-09-03T09:54:01;0.70;;;0.70;;
9844;SDS011;4961;50.782;6.080;2022-09-03T09:56:41;1.37;;;0.70;;
9844;SDS011;4961;50.782;6.080;2022-09-03T09:59:18;0.70;;;0.70;;
9844;SDS011;4961;50.782;6.080;2022-09-03T10:01:47;0.90;;;0.90;;
9844;SDS011;4961;50.782;6.080;2022-09-03T10:04:21;0.70;;;0.70;;
9844;SDS011;4961;50.782;6.080;2022-09-03T10:06:59;0.80;;;0.80;;
9844;SDS011;4961;50.782;6.080;2022-09-03T10:09:34;1.57;;;0.70;;
9844;SDS011;4961;50.782;6.080;2022-09-03T10:12:08;0.83;;;0.83;;
9844;SDS011;4961;50.782;6.080;2022-09-03T10:14:49;2.00;;;0.83;;
9844;SDS011;4961;50.782;6.080;2022-09-03T10:17:23;1.93;;;0.90;;
9844;SDS011;4961;50.782;6.080;2022-09-03T10:20:03;1.00;;;0.90;;
9844;SDS011;4961;50.782;6.080;2022-09-03T10:23:00;1.00;;;0.80;;
9844;SDS011;4961;50.782;6.080;2022-09-03T10:25:37;2.57;;;0.80;;
9844;SDS011;4961;50.782;6.080;2022-09-03T10:28:17;1.77;;;0.77;;
9844;SDS011;4961;50.782;6.080;2022-09-03T10:30:59;2.57;;;1.00;;
9844;SDS011;4961;50.782;6.080;2022-09-03T10:33:45;0.80;;;0.80;;
9844;SDS011;4961;50.782;6.080;2022-09-03T10:36:21;1.67;;;0.80;;
9844;SDS011;4961;50.782;6.080;2022-09-03T10:38:52;0.70;;;0.70;;
9844;SDS011;4961;50.782;6.080;2022-09-03T10:41:34;2.13;;;0.80;;
9844;SDS011;4961;50.782;6.080;2022-09-03T10:44:16;0.87;;;0.87;;
9844;SDS011;4961;50.782;6.080;2022-09-03T10:47:06;1.83;;;0.87;;
9844;SDS011;4961;50.782;6.080;2022-09-03T10:49:51;1.87;;;0.90;;
9844;SDS011;4961;50.782;6.080;2022-09-03T10:52:33;0.73;;;0.70;;
9844;SDS011;4961;50.782;6.080;2022-09-03T10:55:12;3.20;;;0.90;;
9844;SDS011;4961;50.782;6.080;2022-09-03T10:57:50;1.90;;;0.80;;
9844;SDS011;4961;50.782;6.080;2022-09-03T11:00:30;0.70;;;0.70;;
9844;SDS011;4961;50.782;6.080;2022-09-03T11:03:10;4.37;;;1.00;;
9844;SDS011;4961;50.782;6.080;2022-09-03T11:05:59;0.90;;;0.90;;
9844;SDS011;4961;50.782;6.080;2022-09-03T11:08:35;1.03;;;1.03;;
9844;SDS011;4961;50.782;6.080;2022-09-03T11:11:11;1.10;;;1.10;;
9844;SDS011;4961;50.782;6.080;2022-09-03T11:13:47;1.23;;;0.90;;
9844;SDS011;4961;50.782;6.080;2022-09-03T11:16:22;2.17;;;0.93;;
9844;SDS011;4961;50.782;6.080;2022-09-03T11:19:00;2.30;;;0.90;;
9844;SDS011;4961;50.782;6.080;2022-09-03T11:21:34;1.73;;;0.80;;
9844;SDS011;4961;50.782;6.080;2022-09-03T11:24:05;1.83;;;1.23;;
9844;SDS011;4961;50.782;6.080;2022-09-03T11:26:43;1.87;;;1.10;;
9844;SDS011;4961;50.782;6.080;2022-09-03T11:29:16;1.20;;;1.10;;
9844;SDS011;4961;50.782;6.080;2022-09-03T11:31:51;1.00;;;0.90;;
9844;SDS011;4961;50.782;6.080;2022-09-03T11:34:26;1.23;;;0.90;;
9844;SDS011;4961;50.782;6.080;2022-09-03T11:37:17;1.00;;;0.70;;
9844;SDS011;4961;50.782;6.080;2022-09-03T11:39:55;1.00;;;1.00;;
9844;SDS011;4961;50.782;6.080;2022-09-03T11:42:31;0.80;;;0.77;;
9844;SDS011;4961;50.782;6.080;2022-09-03T11:45:19;2.87;;;1.20;;
9844;SDS011;4961;50.782;6.080;2022-09-03T11:47:51;1.70;;;0.90;;
9844;SDS011;4961;50.782;6.080;2022-09-03T11:50:21;0.77;;;0.70;;
9844;SDS011;4961;50.782;6.080;2022-09-03T11:52:52;2.30;;;0.80;;
9844;SDS011;4961;50.782;6.080;2022-09-03T11:55:26;1.00;;;0.90;;
9844;SDS011;4961;50.782;6.080;2022-09-03T11:58:11;3.60;;;1.03;;
9844;SDS011;4961;50.782;6.080;2022-09-03T12:00:48;1.00;;;0.97;;
9844;SDS011;4961;50.782;6.080;2022-09-03T12:03:22;1.00;;;0.87;;
9844;SDS011;4961;50.782;6.080;2022-09-03T12:06:02;1.57;;;1.00;;
9844;SDS011;4961;50.782;6.080;2022-09-03T12:11:54;1.93;;;1.00;;
9844;SDS011;4961;50.782;6.080;2022-09-03T12:14:32;1.93;;;1.70;;
9844;SDS011;4961;50.782;6.080;2022-09-03T12:17:20;1.10;;;1.00;;
9844;SDS011;4961;50.782;6.080;2022-09-03T12:19:56;0.90;;;0.90;;
9844;SDS011;4961;50.782;6.080;2022-09-03T12:22:26;0.83;;;0.80;;
9844;SDS011;4961;50.782;6.080;2022-09-03T12:25:07;2.00;;;1.00;;
9844;SDS011;4961;50.782;6.080;2022-09-03T12:27:37;1.70;;;1.07;;
9844;SDS011;4961;50.782;6.080;2022-09-03T12:30:13;4.30;;;1.00;;
9844;SDS011;4961;50.782;6.080;2022-09-03T12:32:45;0.87;;;0.87;;
9844;SDS011;4961;50.782;6.080;2022-09-03T12:35:15;1.20;;;0.90;;
9844;SDS011;4961;50.782;6.080;2022-09-03T12:38:13;0.77;;;0.77;;
9844;SDS011;4961;50.782;6.080;2022-09-03T12:40:49;0.80;;;0.80;;
9844;SDS011;4961;50.782;6.080;2022-09-03T12:43:37;1.37;;;1.00;;
9844;SDS011;4961;50.782;6.080;2022-09-03T12:46:18;3.23;;;1.00;;
9844;SDS011;4961;50.782;6.080;2022-09-03T12:49:01;4.50;;;1.00;;
9844;SDS011;4961;50.782;6.080;2022-09-03T12:51:57;1.10;;;0.90;;
9844;SDS011;4961;50.782;6.080;2022-09-03T12:54:31;1.33;;;1.00;;
9844;SDS011;4961;50.782;6.080;2022-09-03T12:57:01;1.37;;;0.90;;
9844;SDS011;4961;50.782;6.080;2022-09-03T12:59:31;1.70;;;1.00;;
9844;SDS011;4961;50.782;6.080;2022-09-03T13:02:04;1.53;;;1.20;;
9844;SDS011;4961;50.782;6.080;2022-09-03T13:04:44;1.30;;;1.20;;
9844;SDS011;4961;50.782;6.080;2022-09-03T13:07:14;1.20;;;1.10;;
9844;SDS011;4961;50.782;6.080;2022-09-03T13:10:00;3.83;;;1.03;;
9844;SDS011;4961;50.782;6.080;2022-09-03T13:12:33;1.30;;;1.00;;
9844;SDS011;4961;50.782;6.080;2022-09-03T13:15:20;0.93;;;0.90;;
9844;SDS011;4961;50.782;6.080;2022-09-03T13:17:54;2.17;;;1.97;;
9844;SDS011;4961;50.782;6.080;2022-09-03T13:20:37;2.30;;;1.00;;
9844;SDS011;4961;50.782;6.080;2022-09-03T13:23:27;3.07;;;0.87;;
9844;SDS011;4961;50.782;6.080;2022-09-03T13:26:04;1.93;;;1.50;;
9844;SDS011;4961;50.782;6.080;2022-09-03T13:28:49;1.03;;;0.90;;
9844;SDS011;4961;50.782;6.080;2022-09-03T13:31:28;2.70;;;1.20;;
9844;SDS011;4961;50.782;6.080;2022-09-03T13:34:02;1.63;;;1.00;;
9844;SDS011;4961;50.782;6.080;2022-09-03T13:36:40;2.93;;;0.90;;
9844;SDS011;4961;50.782;6.080;2022-09-03T13:39:16;4.30;;;1.13;;
9844;SDS011;4961;50.782;6.080;2022-09-03T13:41:48;1.10;;;0.80;;
9844;SDS011;4961;50.782;6.080;2022-09-03T13:44:30;1.57;;;0.90;;
9844;SDS011;4961;50.782;6.080;2022-09-03T13:47:08;2.97;;;1.20;;
9844;SDS011;4961;50.782;6.080;2022-09-03T13:49:46;4.37;;;1.23;;
9844;SDS011;4961;50.782;6.080;2022-09-03T13:52:42;3.13;;;1.30;;
9844;SDS011;4961;50.782;6.080;2022-09-03T13:55:17;1.43;;;1.00;;
9844;SDS011;4961;50.782;6.080;2022-09-03T13:57:52;1.47;;;1.17;;
9844;SDS011;4961;50.782;6.080;2022-09-03T14:00:28;1.80;;;1.57;;
9844;SDS011;4961;50.782;6.080;2022-09-03T14:03:06;1.77;;;1.00;;
9844;SDS011;4961;50.782;6.080;2022-09-03T14:05:46;0.90;;;0.90;;
9844;SDS011;4961;50.782;6.080;2022-09-03T14:08:31;1.17;;;1.00;;
9844;SDS011;4961;50.782;6.080;2022-09-03T14:11:06;3.50;;;1.07;;
9844;SDS011;4961;50.782;6.080;2022-09-03T14:13:53;2.63;;;0.90;;
9844;SDS011;4961;50.782;6.080;2022-09-03T14:16:35;4.60;;;1.00;;
9844;SDS011;4961;50.782;6.080;2022-09-03T14:19:10;3.20;;;1.20;;
9844;SDS011;4961;50.782;6.080;2022-09-03T14:21:44;3.20;;;1.83;;
9844;SDS011;4961;50.782;6.080;2022-09-03T14:24:21;3.57;;;2.00;;
9844;SDS011;4961;50.782;6.080;2022-09-03T14:26:53;2.17;;;1.23;;
9844;SDS011;4961;50.782;6.080;2022-09-03T14:29:27;1.57;;;1.10;;
9844;SDS011;4961;50.782;6.080;2022-09-03T14:31:59;2.60;;;1.47;;
9844;SDS011;4961;50.782;6.080;2022-09-03T14:34:40;3.20;;;1.27;;
9844;SDS011;4961;50.782;6.080;2022-09-03T14:37:28;1.50;;;1.40;;
9844;SDS011;4961;50.782;6.080;2022-09-03T14:40:15;1.80;;;1.70;;
9844;SDS011;4961;50.782;6.080;2022-09-03T14:45:49;1.50;;;1.40;;
9844;SDS011;4961;50.782;6.080;2022-09-03T14:48:39;0.90;;;0.90;;
9844;SDS011;4961;50.782;6.080;2022-09-03T14:51:30;1.40;;;1.30;;
9844;SDS011;4961;50.782;6.080;2022-09-03T14:57:24;1.00;;;0.93;;
9844;SDS011;4961;50.782;6.080;2022-09-03T15:00:06;1.03;;;0.87;;
9844;SDS011;4961;50.782;6.080;2022-09-03T15:03:00;1.00;;;0.80;;
9844;SDS011;4961;50.782;6.080;2022-09-03T15:05:49;0.90;;;0.90;;
9844;SDS011;4961;50.782;6.080;2022-09-03T15:08:36;0.77;;;0.70;;
9844;SDS011;4961;50.782;6.080;2022-09-03T15:11:14;1.20;;;0.90;;
9844;SDS011;4961;50.782;6.080;2022-09-03T15:13:47;0.80;;;0.67;;
9844;SDS011;4961;50.782;6.080;2022-09-03T15:16:30;2.00;;;1.00;;
9844;SDS011;4961;50.782;6.080;2022-09-03T15:19:12;1.33;;;0.80;;
9844;SDS011;4961;50.782;6.080;2022-09-03T15:22:05;1.50;;;0.97;;
9844;SDS011;4961;50.782;6.080;2022-09-03T15:24:42;1.40;;;1.00;;
9844;SDS011;4961;50.782;6.080;2022-09-03T15:27:27;1.87;;;0.90;;
9844;SDS011;4961;50.782;6.080;2022-09-03T15:30:17;1.10;;;1.10;;
9844;SDS011;4961;50.782;6.080;2022-09-03T15:32:49;1.53;;;0.80;;
9844;SDS011;4961;50.782;6.080;2022-09-03T15:35:44;1.17;;;1.07;;
9844;SDS011;4961;50.782;6.080;2022-09-03T15:38:33;1.07;;;0.90;;
9844;SDS011;4961;50.782;6.080;2022-09-03T15:41:18;1.30;;;1.20;;
9844;SDS011;4961;50.782;6.080;2022-09-03T15:44:02;2.73;;;1.50;;
9844;SDS011;4961;50.782;6.080;2022-09-03T15:46:58;2.13;;;1.30;;
9844;SDS011;4961;50.782;6.080;2022-09-03T15:49:44;1.20;;;1.10;;
9844;SDS011;4961;50.782;6.080;2022-09-03T15:52:29;1.27;;;1.00;;
9844;SDS011;4961;50.782;6.080;2022-09-03T15:55:05;1.30;;;1.20;;
9844;SDS011;4961;50.782;6.080;2022-09-03T15:57:40;2.37;;;1.27;;
9844;SDS011;4961;50.782;6.080;2022-09-03T16:00:17;1.43;;;1.30;;
9844;SDS011;4961;50.782;6.080;2022-09-03T16:02:54;1.87;;;1.10;;
9844;SDS011;4961;50.782;6.080;2022-09-03T16:05:34;2.53;;;1.10;;
9844;SDS011;4961;50.782;6.080;2022-09-03T16:08:14;1.20;;;1.10;;
9844;SDS011;4961;50.782;6.080;2022-09-03T16:10:51;0.90;;;0.90;;
9844;SDS011;4961;50.782;6.080;2022-09-03T16:13:32;1.10;;;0.90;;
9844;SDS011;4961;50.782;6.080;2022-09-03T16:16:13;2.33;;;0.90;;
9844;SDS011;4961;50.782;6.080;2022-09-03T16:18:56;1.27;;;0.80;;
9844;SDS011;4961;50.782;6.080;2022-09-03T16:21:35;1.00;;;1.00;;
9844;SDS011;4961;50.782;6.080;2022-09-03T16:24:12;1.47;;;0.90;;